»·PEaware :: DAL781 KMSO-KSLC

DAL781 :: KMSO-KSLC

FLIGHT INFORMATION

Flight Status: Arrived
Operator:
Delta Air Lines
More flights by this operator :: More flights under this callsign
Pilot: Anonymous 14167 (14167)
Aircraft: MCDONNELL-DOUGLAS MD-88
(MD88)
More flights by this aircraft type
Origin: KMSO Missoula Intl
United States
Destination: KSLC Salt Lake City Intl
United States
More flights between these airports :: More routes between these airports
Route: +MZULA4 LKT PIH SKEES5
File this flight plan on PilotEdge
Remarks:
Altitude:
(Current/Filed)
33,000ft
Speed:
(Current/Filed)
440kts
Departed: 20-Apr-18 06:10 PM
Arrived: 20-Apr-18 07:18 PM
Distance/Time
Traveled:
379nm/1:08
Distance/Time
To Go:
Arrived

Flight Plot

Page will automatically refresh every two minutes.

Flight plan parsing failed; only flown route is shown


Map Options




Map Legend


Flown Route
Filed Route
Departure Airport
Arrival Airport
Navaid (VOR, NDB)
Fix

Horizontal Profiles

Position Reports

Time Latitude Longitude Heading Altitude Ground
Speed
20-Apr-18 17:44 46.918939 -114.085202 109 3211ft 0kts
20-Apr-18 17:45 46.918939 -114.085202 109 3211ft 0kts
20-Apr-18 17:46 46.918939 -114.085202 109 3211ft 0kts
20-Apr-18 17:47 46.918939 -114.085202 109 3211ft 0kts
20-Apr-18 17:48 46.918939 -114.085202 109 3211ft 0kts
20-Apr-18 17:49 46.918939 -114.085202 109 3211ft 0kts
20-Apr-18 17:50 46.918939 -114.085202 109 3211ft 0kts
20-Apr-18 17:51 46.918939 -114.085202 109 3211ft 0kts
20-Apr-18 17:52 46.918939 -114.085202 109 3211ft 0kts
20-Apr-18 17:53 46.918939 -114.085202 109 3211ft 0kts
20-Apr-18 17:54 46.918946 -114.085229 109 3211ft 1kts
20-Apr-18 17:55 46.919332 -114.085773 188 3211ft 2kts
20-Apr-18 17:56 46.919539 -114.085624 219 3211ft 0kts
20-Apr-18 17:57 46.919539 -114.085624 219 3211ft 0kts
20-Apr-18 17:58 46.919539 -114.085624 219 3211ft 0kts
20-Apr-18 17:59 46.919539 -114.085624 219 3211ft 0kts
20-Apr-18 18:00 46.919539 -114.085624 219 3211ft 0kts
20-Apr-18 18:01 46.919539 -114.085624 219 3211ft 0kts
20-Apr-18 18:02 46.919294 -114.088146 263 3211ft 13kts
20-Apr-18 18:03 46.918132 -114.091410 308 3211ft 7kts
20-Apr-18 18:04 46.919547 -114.093822 311 3211ft 11kts
20-Apr-18 18:05 46.922498 -114.098888 310 3211ft 11kts
20-Apr-18 18:06 46.925045 -114.103268 309 3211ft 15kts
20-Apr-18 18:07 46.925060 -114.106011 219 3211ft 4kts
20-Apr-18 18:08 46.924126 -114.105356 126 3211ft 9kts
20-Apr-18 18:09 46.903584 -114.067946 128 4129ft 171kts
20-Apr-18 18:10 46.860315 -114.059902 197 6868ft 177kts
20-Apr-18 18:11 46.804979 -114.065545 177 8925ft 225kts
20-Apr-18 18:12 46.733484 -114.050666 170 10819ft 298kts
20-Apr-18 18:13 46.644289 -114.028907 175 13261ft 343kts
20-Apr-18 18:14 46.550228 -114.031820 209 16245ft 346kts
20-Apr-18 18:15 46.461136 -114.086809 184 18771ft 366kts
20-Apr-18 18:16 46.358088 -114.084100 181 21069ft 377kts
20-Apr-18 18:17 46.251915 -114.083819 182 23111ft 388kts
20-Apr-18 18:18 46.142546 -114.083847 181 24797ft 402kts
20-Apr-18 18:19 46.029459 -114.083867 182 26368ft 414kts
20-Apr-18 18:20 45.912557 -114.083895 182 27798ft 426kts
20-Apr-18 18:21 45.795225 -114.083922 182 29058ft 436kts
20-Apr-18 18:22 45.672360 -114.083983 181 30145ft 448kts
20-Apr-18 18:23 45.546718 -114.083967 182 31148ft 458kts
20-Apr-18 18:24 45.418576 -114.083994 182 32046ft 465kts
20-Apr-18 18:25 45.288971 -114.084022 182 32817ft 472kts
20-Apr-18 18:26 45.158395 -114.084069 182 33125ft 463kts
20-Apr-18 18:27 45.031009 -114.081809 173 33126ft 463kts
20-Apr-18 18:28 44.912497 -114.010794 154 33133ft 466kts
20-Apr-18 18:29 44.797445 -113.933715 154 33126ft 466kts
20-Apr-18 18:30 44.680585 -113.856296 154 33127ft 468kts
20-Apr-18 18:31 44.585936 -113.793539 154 33127ft 468kts
20-Apr-18 18:32 44.468817 -113.715924 153 33128ft 467kts
20-Apr-18 18:33 44.352121 -113.638463 153 33129ft 466kts
20-Apr-18 18:34 44.235504 -113.561066 152 33130ft 467kts
20-Apr-18 18:35 44.117898 -113.482956 152 33132ft 468kts
20-Apr-18 18:36 44.000776 -113.405132 152 33133ft 468kts
20-Apr-18 18:37 43.885634 -113.328587 152 33136ft 468kts
20-Apr-18 18:38 43.768676 -113.250804 152 33134ft 468kts
20-Apr-18 18:39 43.651287 -113.172710 151 33135ft 470kts
20-Apr-18 18:40 43.533679 -113.094397 151 33109ft 470kts
20-Apr-18 18:41 43.416224 -113.016162 151 33110ft 470kts
20-Apr-18 18:42 43.299056 -112.938083 151 33112ft 470kts
20-Apr-18 18:43 43.181595 -112.859798 150 33114ft 472kts
20-Apr-18 18:44 43.121456 -112.819665 150 33114ft 472kts
20-Apr-18 18:45 43.003961 -112.741282 149 33115ft 472kts
20-Apr-18 18:46 42.888211 -112.664096 150 33109ft 472kts
20-Apr-18 18:47 42.782969 -112.624328 165 33109ft 480kts
20-Apr-18 18:48 42.782969 -112.624328 165 33109ft 480kts
20-Apr-18 18:49 42.727806 -112.608999 164 33104ft 481kts
20-Apr-18 18:50 42.597220 -112.570294 163 33106ft 482kts
20-Apr-18 18:51 42.466976 -112.531361 163 33108ft 481kts
20-Apr-18 18:52 42.382776 -112.506181 163 33109ft 481kts
20-Apr-18 18:53 42.259748 -112.469418 163 31287ft 477kts
20-Apr-18 18:54 42.129466 -112.452130 182 28931ft 476kts
20-Apr-18 18:55 42.000745 -112.462212 179 26390ft 459kts
20-Apr-18 18:56 41.879885 -112.469065 180 24017ft 450kts
20-Apr-18 18:57 41.788493 -112.474166 181 22190ft 440kts
20-Apr-18 18:58 41.670958 -112.480681 181 19920ft 421kts
20-Apr-18 18:59 41.561841 -112.486778 181 17598ft 375kts
20-Apr-18 19:00 41.470571 -112.437158 143 15995ft 368kts
20-Apr-18 19:01 41.383647 -112.373467 150 14899ft 352kts
20-Apr-18 19:02 41.298394 -112.313339 151 13836ft 347kts
20-Apr-18 19:03 41.214067 -112.253054 148 12827ft 342kts
20-Apr-18 19:04 41.136290 -112.193418 147 11774ft 317kts
20-Apr-18 19:05 41.062010 -112.141545 165 11028ft 301kts
20-Apr-18 19:06 40.978358 -112.125652 170 11032ft 306kts
20-Apr-18 19:07 40.895554 -112.108455 172 11020ft 307kts
20-Apr-18 19:08 40.812244 -112.099024 174 10861ft 310kts
20-Apr-18 19:09 40.730196 -112.089525 175 9533ft 291kts
20-Apr-18 19:10 40.652997 -112.079700 175 8180ft 267kts
20-Apr-18 19:11 40.602707 -112.038387 72 7096ft 202kts
20-Apr-18 19:12 40.627445 -111.982650 51 7030ft 169kts
20-Apr-18 19:13 40.664304 -111.979402 349 6955ft 138kts
20-Apr-18 19:14 40.705271 -111.987034 354 5833ft 143kts
20-Apr-18 19:15 40.743193 -111.991673 353 4879ft 138kts
20-Apr-18 19:16 40.780486 -111.996247 354 4234ft 130kts
20-Apr-18 19:17 40.798383 -111.996695 52 4233ft 7kts
20-Apr-18 19:18 40.797620 -111.994970 173 4233ft 12kts
20-Apr-18 19:19 40.794792 -111.994629 175 4233ft 13kts
20-Apr-18 19:20 40.791027 -111.993366 87 4233ft 8kts
20-Apr-18 19:21 40.791231 -111.990159 85 4233ft 11kts
20-Apr-18 19:22 40.791292 -111.985379 135 4233ft 10kts
20-Apr-18 19:23 40.788990 -111.983559 185 4233ft 7kts
20-Apr-18 19:24 40.788574 -111.984213 248 4233ft 0kts

Navigation Log

Ident Type
Flight plan parsing failed, navigation log unavailable